Time;durP1;ratioP1;P1;durP2;ratioP2;P2;SDS_P1;SDS_P2;PMS_P1;PMS_P2;Temp;Humidity;BMP_temperature;BMP_pressure;BME280_temperature;BME280_humidity;BME280_pressure;Samples;Min_cycle;Max_cycle;Signal;HPM_P1;HPM_P2
2021/10/11 00:00:39;;;;;;;0.65;0.55;;;;;;;1.17;52.31;99227.50;5052046;28;20137;-63
2021/10/11 00:03:05;;;;;;;2.50;0.80;;;;;;;1.18;52.39;99223.81;5052258;28;20076;-64
2021/10/11 00:05:31;;;;;;;0.60;0.60;;;;;;;1.18;52.33;99224.63;5052578;28;20526;-65
2021/10/11 00:07:56;;;;;;;0.60;0.60;;;;;;;1.22;52.47;99217.88;5052114;28;20073;-63
2021/10/11 00:10:24;;;;;;;0.30;0.30;;;;;;;1.24;52.39;99212.31;5052292;28;20049;-64
2021/10/11 00:12:52;;;;;;;2.03;1.23;;;;;;;1.24;52.46;99217.72;5051904;28;20472;-64
2021/10/11 00:15:20;;;;;;;1.90;1.15;;;;;;;1.23;52.68;99211.44;5051949;28;20037;-63
2021/10/11 00:17:47;;;;;;;0.82;0.82;;;;;;;1.22;52.70;99215.19;5052297;28;20041;-63
2021/10/11 00:20:14;;;;;;;0.85;0.55;;;;;;;1.23;52.69;99207.91;5052253;28;20047;-64
2021/10/11 00:22:41;;;;;;;0.73;0.63;;;;;;;1.22;52.79;99204.38;5052191;28;20123;-63
2021/10/11 00:25:07;;;;;;;1.15;1.15;;;;;;;1.21;52.65;99208.06;5051955;28;20566;-63
2021/10/11 00:27:33;;;;;;;4.93;0.40;;;;;;;1.21;52.70;99208.06;5052287;28;20037;-65
2021/10/11 00:30:00;;;;;;;1.10;0.93;;;;;;;1.20;53.01;99200.13;5051825;28;20473;-62
2021/10/11 00:32:26;;;;;;;1.42;1.17;;;;;;;1.22;52.91;99211.63;5051943;28;20095;-63
2021/10/11 00:34:52;;;;;;;0.70;0.70;;;;;;;1.23;52.95;99213.31;5052128;28;20491;-63
2021/10/11 00:37:17;;;;;;;1.52;1.33;;;;;;;1.23;53.06;99207.91;5034016;28;20047;-64
2021/10/11 00:39:43;;;;;;;3.20;0.85;;;;;;;1.22;53.05;99188.13;5051807;28;20052;-63
2021/10/11 00:42:09;;;;;;;2.53;1.15;;;;;;;1.21;53.14;99191.84;5052027;28;20071;-62
2021/10/11 00:44:35;;;;;;;1.20;1.15;;;;;;;1.22;53.20;99187.28;5052126;28;20044;-62
2021/10/11 00:47:01;;;;;;;0.60;0.57;;;;;;;1.22;53.46;99188.13;5052627;28;20037;-62
2021/10/11 00:49:27;;;;;;;2.30;1.05;;;;;;;1.20;53.34;99187.44;5056007;28;20071;-63
2021/10/11 00:51:52;;;;;;;0.80;0.80;;;;;;;1.15;53.66;99189.81;5055740;28;20431;-64
2021/10/11 00:54:18;;;;;;;1.20;1.05;;;;;;;1.19;53.70;99180.34;5055732;28;20041;-64
2021/10/11 00:56:45;;;;;;;1.08;0.65;;;;;;;1.22;53.58;99187.28;5055583;28;20091;-63
2021/10/11 00:59:10;;;;;;;0.77;0.77;;;;;;;1.24;53.54;99182.56;5055209;28;20036;-66
2021/10/11 01:01:36;;;;;;;1.73;1.05;;;;;;;1.21;53.56;99172.91;5055671;28;20396;-68
2021/10/11 01:04:05;;;;;;;2.08;0.73;;;;;;;1.24;53.58;99177.16;5037847;28;20072;-66
2021/10/11 01:06:38;;;;;;;2.03;1.67;;;;;;;1.27;53.81;99179.53;5055752;28;20047;-67
2021/10/11 01:09:09;;;;;;;1.55;0.88;;;;;;;1.24;53.58;99179.84;5055666;28;20124;-67
2021/10/11 01:11:35;;;;;;;0.30;0.30;;;;;;;1.25;53.90;99169.88;5055474;28;20041;-67
2021/10/11 01:14:02;;;;;;;1.55;1.45;;;;;;;1.28;53.93;99164.13;5055644;28;20451;-67
2021/10/11 01:16:28;;;;;;;0.25;0.25;;;;;;;1.33;53.87;99167.19;5055357;28;20057;-67
2021/10/11 01:18:55;;;;;;;3.20;0.35;;;;;;;1.30;53.91;99160.25;5055478;28;20476;-67
2021/10/11 01:21:22;;;;;;;0.57;0.57;;;;;;;1.33;54.12;99167.19;5055317;28;20040;-67
2021/10/11 01:23:48;;;;;;;6.63;1.27;;;;;;;1.35;53.85;99155.16;5055600;28;20037;-67
2021/10/11 01:26:14;;;;;;;1.17;0.68;;;;;;;1.42;53.95;99157.22;5055029;28;20044;-67
2021/10/11 01:28:39;;;;;;;0.90;0.90;;;;;;;1.44;53.91;99152.47;5055056;28;20037;-64
2021/10/11 01:31:05;;;;;;;3.92;1.05;;;;;;;1.46;54.13;99161.25;5054800;28;20582;-65
2021/10/11 01:33:31;;;;;;;0.20;0.20;;;;;;;1.49;53.93;99156.38;5055157;28;20041;-65
2021/10/11 01:35:58;;;;;;;3.35;0.52;;;;;;;1.56;54.03;99154.69;5055039;28;20095;-64
2021/10/11 01:38:24;;;;;;;1.42;1.38;;;;;;;1.60;54.16;99155.19;5037107;28;20059;-65
2021/10/11 01:40:49;;;;;;;1.75;1.02;;;;;;;1.63;53.96;99144.03;5055030;28;20041;-65
2021/10/11 01:43:15;;;;;;;1.15;1.05;;;;;;;1.67;54.13;99148.09;5054892;28;20444;-64
2021/10/11 01:45:47;;;;;;;0.40;0.40;;;;;;;1.65;54.27;99155.53;5054639;28;20144;-65
2021/10/11 01:48:12;;;;;;;0.32;0.32;;;;;;;1.63;54.37;99152.16;5054771;28;20054;-67
2021/10/11 01:50:38;;;;;;;0.55;0.55;;;;;;;1.64;54.25;99150.31;5053848;28;20041;-67
2021/10/11 01:53:04;;;;;;;0.45;0.45;;;;;;;1.66;54.60;99153.69;5053688;28;20135;-67
2021/10/11 01:55:29;;;;;;;0.40;0.40;;;;;;;1.66;54.68;99156.38;5053620;28;20045;-65
2021/10/11 01:57:55;;;;;;;1.10;0.98;;;;;;;1.71;54.68;99149.44;5053564;28;20452;-65
2021/10/11 02:00:21;;;;;;;0.82;0.60;;;;;;;1.74;54.79;99148.28;5052127;28;20047;-66
2021/10/11 02:02:47;;;;;;;0.82;0.82;;;;;;;1.77;54.68;99141.66;5037034;28;20049;-65
2021/10/11 02:05:13;;;;;;;0.30;0.30;;;;;;;1.81;54.49;99143.00;5044906;28;20056;-64
2021/10/11 02:07:38;;;;;;;0.60;0.60;;;;;;;1.86;54.63;99140.66;5043999;28;20164;-65
2021/10/11 02:10:06;;;;;;;0.30;0.30;;;;;;;1.88;54.71;99141.31;5043014;28;20044;-64
2021/10/11 02:12:32;;;;;;;1.02;1.02;;;;;;;1.91;54.76;99133.72;5042974;28;20041;-65
2021/10/11 02:14:58;;;;;;;0.63;0.63;;;;;;;1.93;54.84;99126.25;5035885;28;20037;-63
2021/10/11 02:17:24;;;;;;;0.52;0.52;;;;;;;1.96;54.83;99138.59;5033863;28;20528;-63
2021/10/11 02:19:49;;;;;;;0.55;0.55;;;;;;;1.95;54.91;99123.38;5032652;28;20038;-64
2021/10/11 02:22:15;;;;;;;0.50;0.50;;;;;;;1.90;55.13;99125.75;5031641;28;20539;-64
2021/10/11 02:24:41;;;;;;;0.70;0.70;;;;;;;1.91;55.25;99125.59;5033665;28;20041;-64
2021/10/11 02:27:08;;;;;;;0.60;0.60;;;;;;;1.92;55.28;99127.25;5034160;28;20091;-64
2021/10/11 02:29:33;;;;;;;0.50;0.50;;;;;;;1.94;55.35;99118.97;5033585;28;20555;-64
2021/10/11 02:32:00;;;;;;;0.30;0.30;;;;;;;1.97;55.37;99115.91;5031527;28;20049;-64
2021/10/11 02:34:26;;;;;;;2.60;2.25;;;;;;;1.99;55.43;99111.19;5031580;28;20071;-65
2021/10/11 02:36:53;;;;;;;1.15;1.05;;;;;;;2.05;55.55;99117.78;5031329;28;20045;-64
2021/10/11 02:39:18;;;;;;;0.50;0.50;;;;;;;2.08;55.48;99118.25;5031637;28;20128;-64
2021/10/11 02:41:44;;;;;;;0.38;0.38;;;;;;;2.10;55.43;99101.84;5031911;28;20137;-64
2021/10/11 02:44:10;;;;;;;0.43;0.43;;;;;;;2.14;55.68;99100.47;5032045;28;20059;-63
2021/10/11 02:46:36;;;;;;;0.38;0.38;;;;;;;2.19;55.54;99105.38;5045014;28;20041;-62
2021/10/11 02:49:02;;;;;;;0.38;0.38;;;;;;;2.21;55.81;99104.19;5053455;28;20387;-64
2021/10/11 02:51:28;;;;;;;1.13;0.65;;;;;;;2.16;55.81;99098.44;5053351;28;20041;-64
2021/10/11 02:53:53;;;;;;;0.55;0.40;;;;;;;2.09;56.06;99097.44;5053316;28;20041;-64
2021/10/11 02:56:20;;;;;;;1.35;0.90;;;;;;;2.13;56.28;99092.53;5053539;28;20036;-65
2021/10/11 02:58:46;;;;;;;0.40;0.40;;;;;;;2.17;56.21;99083.88;5053387;28;20049;-64
2021/10/11 03:01:12;;;;;;;1.27;0.43;;;;;;;2.24;56.23;99082.16;5045905;28;20049;-66
2021/10/11 03:03:39;;;;;;;0.85;0.50;;;;;;;2.27;56.31;99089.09;5042007;28;20059;-65
2021/10/11 03:06:05;;;;;;;0.65;0.65;;;;;;;2.29;56.30;99087.03;5042894;28;20200;-65
2021/10/11 03:08:33;;;;;;;0.70;0.30;;;;;;;2.30;56.56;99085.16;5041022;28;20042;-65
2021/10/11 03:10:59;;;;;;;0.95;0.88;;;;;;;2.36;56.80;99088.03;5040905;28;20127;-65
2021/10/11 03:13:25;;;;;;;0.68;0.68;;;;;;;2.40;56.45;99077.69;5042519;28;20050;-64
2021/10/11 03:15:51;;;;;;;0.90;0.80;;;;;;;2.48;56.68;99079.53;5040689;28;20060;-64
2021/10/11 03:18:16;;;;;;;0.30;0.30;;;;;;;2.51;56.66;99076.47;5042128;28;20479;-64
2021/10/11 03:20:42;;;;;;;0.35;0.35;;;;;;;2.52;56.82;99065.44;5041947;28;20045;-64
2021/10/11 03:23:08;;;;;;;0.63;0.63;;;;;;;2.56;56.93;99065.94;5040828;28;20495;-64
2021/10/11 03:25:34;;;;;;;0.30;0.30;;;;;;;2.56;57.01;99057.78;5042313;28;20044;-65
2021/10/11 03:27:59;;;;;;;0.30;0.30;;;;;;;2.57;57.23;99062.19;5041552;28;20496;-65
2021/10/11 03:30:25;;;;;;;0.40;0.40;;;;;;;2.57;57.30;99046.78;5039837;28;20044;-65
2021/10/11 03:32:51;;;;;;;0.20;0.20;;;;;;;2.57;57.38;99054.06;5042110;28;20045;-65
2021/10/11 03:35:16;;;;;;;0.30;0.30;;;;;;;2.60;57.64;99059.13;5041033;28;20435;-65
2021/10/11 03:37:42;;;;;;;0.30;0.30;;;;;;;2.63;57.54;99061.50;5040731;28;20167;-65
2021/10/11 03:40:08;;;;;;;0.28;0.28;;;;;;;2.63;57.80;99048.81;5042492;28;20068;-66
2021/10/11 03:42:35;;;;;;;0.70;0.70;;;;;;;2.65;57.79;99045.91;5040841;28;20119;-63
2021/10/11 03:45:01;;;;;;;0.40;0.40;;;;;;;2.63;57.94;99050.66;5040638;28;20045;-64
2021/10/11 03:47:27;;;;;;;0.45;0.45;;;;;;;2.61;58.32;99039.97;5042079;28;20072;-64
2021/10/11 03:49:52;;;;;;;0.60;0.60;;;;;;;2.61;58.45;99039.16;5040295;28;20393;-65
2021/10/11 03:52:18;;;;;;;0.20;0.20;;;;;;;2.62;58.58;99036.25;5041505;28;20045;-64
2021/10/11 03:54:44;;;;;;;0.20;0.20;;;;;;;2.67;58.63;99029.47;5024010;28;20515;-67
2021/10/11 03:57:09;;;;;;;0.57;0.40;;;;;;;2.71;58.63;99023.50;5039883;28;20039;-67
2021/10/11 03:59:35;;;;;;;0.20;0.20;;;;;;;2.73;58.68;99031.44;5041047;28;20072;-66
2021/10/11 04:02:01;;;;;;;0.30;0.30;;;;;;;2.72;58.90;99027.03;5041169;28;20037;-66
2021/10/11 04:04:27;;;;;;;0.55;0.55;;;;;;;2.74;59.05;99033.13;5039714;28;20045;-65
2021/10/11 04:06:55;;;;;;;0.55;0.55;;;;;;;2.75;59.09;99026.69;5041623;28;20392;-65
2021/10/11 04:09:27;;;;;;;0.20;0.20;;;;;;;2.78;59.09;99032.59;5041257;28;20041;-65
2021/10/11 04:11:54;;;;;;;0.20;0.20;;;;;;;2.84;59.33;99024.75;5041783;28;20063;-65
2021/10/11 04:14:24;;;;;;;0.35;0.35;;;;;;;2.89;59.36;99022.38;5040755;28;20041;-65
2021/10/11 04:16:51;;;;;;;1.35;0.63;;;;;;;2.88;59.40;99020.66;5039114;28;20419;-65
2021/10/11 04:19:16;;;;;;;0.45;0.45;;;;;;;2.86;59.53;99028.16;5040376;28;20046;-66
2021/10/11 04:21:42;;;;;;;0.35;0.35;;;;;;;2.86;59.81;99022.72;5040053;28;20119;-65
2021/10/11 04:24:09;;;;;;;0.30;0.30;;;;;;;2.88;59.89;99023.38;5041819;28;20060;-64
2021/10/11 04:30:37;;;;;;;0.25;0.25;;;;;;;2.90;59.89;98997.78;5036277;28;20115;-64
2021/10/11 04:33:43;;;;;;;0.30;0.30;;;;;;;2.93;60.09;98999.25;5040867;28;20439;-64
2021/10/11 04:36:48;;;;;;;0.47;0.47;;;;;;;2.91;60.11;98999.44;5041656;28;20118;-65
2021/10/11 04:39:53;;;;;;;0.57;0.47;;;;;;;2.92;60.21;99008.44;5024520;28;20040;-66
2021/10/11 04:42:59;;;;;;;0.40;0.40;;;;;;;2.92;60.36;99000.31;5040771;28;20125;-67
2021/10/11 04:52:51;;;;;;;0.82;0.82;;;;;;;3.13;60.31;99008.59;5034006;28;20100;-67
2021/10/11 04:55:56;;;;;;;0.70;0.70;;;;;;;3.09;60.38;99001.88;5039902;28;20073;-68
2021/10/11 04:58:42;;;;;;;;;;;;;;;3.06;60.44;99004.09;5041121;28;20044;-68
2021/10/11 05:05:10;;;;;;;0.88;0.57;;;;;;;3.21;60.35;99002.28;5036023;28;20051;-65
2021/10/11 05:08:15;;;;;;;0.60;0.60;;;;;;;3.27;60.30;98990.69;5032126;28;20045;-67
2021/10/11 05:11:21;;;;;;;0.63;0.63;;;;;;;3.24;60.47;99001.06;5031790;28;20100;-67
2021/10/11 05:14:26;;;;;;;0.85;0.50;;;;;;;3.22;60.64;98993.09;5031020;28;20037;-67
2021/10/11 05:17:32;;;;;;;0.40;0.40;;;;;;;3.24;60.60;98992.91;5028015;28;20049;-67
2021/10/11 05:20:38;;;;;;;0.30;0.30;;;;;;;3.27;60.64;98982.53;5014063;28;20124;-68
2021/10/11 05:23:43;;;;;;;0.22;0.22;;;;;;;3.40;60.45;98981.94;5030984;28;20068;-68
2021/10/11 05:27:04;;;;;;;0.40;0.40;;;;;;;3.56;60.29;98985.50;5029052;28;20057;-67
2021/10/11 05:30:09;;;;;;;0.55;0.40;;;;;;;3.69;60.22;98988.41;5011782;28;20496;-67
2021/10/11 05:33:16;;;;;;;0.47;0.47;;;;;;;3.80;60.11;98987.94;5030906;28;20053;-66
2021/10/11 05:36:21;;;;;;;2.47;0.90;;;;;;;3.85;60.11;98977.34;5033763;28;20096;-66
2021/10/11 05:39:28;;;;;;;5.40;0.73;;;;;;;3.96;60.18;98972.47;5034747;28;20049;-67
2021/10/11 05:42:33;;;;;;;3.53;0.55;;;;;;;4.03;60.21;98970.69;5034916;28;20049;-67
2021/10/11 05:45:39;;;;;;;0.63;0.50;;;;;;;4.12;60.20;98974.16;5035334;28;20404;-67
2021/10/11 05:48:24;;;;;;;;;;;;;;;4.16;60.12;98959.16;5035294;28;20465;-66
2021/10/11 05:51:30;;;;;;;0.57;0.57;;;;;;;4.13;60.25;98960.38;5017068;28;19925;-68
2021/10/11 05:54:35;;;;;;;0.60;0.60;;;;;;;4.21;60.29;98957.56;5034900;28;20060;-66
2021/10/11 05:57:41;;;;;;;0.45;0.32;;;;;;;4.28;60.28;98951.38;5034735;28;20559;-68
2021/10/11 06:00:47;;;;;;;0.43;0.43;;;;;;;4.32;60.48;98956.22;5016628;28;20515;-67
2021/10/11 06:03:32;;;;;;;;;;;;;;;4.39;60.19;98948.16;5034860;28;20044;-68
2021/10/11 06:16:47;;;;;;;0.50;0.50;;;;;;;4.70;60.28;98933.44;5029206;28;20526;-67
2021/10/11 06:19:53;;;;;;;1.05;0.95;;;;;;;4.81;60.23;98935.63;5030765;28;20080;-67
2021/10/11 06:29:45;;;;;;;1.55;1.20;;;;;;;5.20;59.96;98931.56;5028860;28;20091;-66
2021/10/11 11:19:16;;;;;;;0.20;0.20;;;;;;;6.70;68.18;98682.78;5065812;28;20109;-67
2021/10/11 11:21:42;;;;;;;0.20;0.20;;;;;;;6.76;68.44;98675.66;5084939;28;20510;-67
2021/10/11 11:24:07;;;;;;;0.20;0.20;;;;;;;6.77;68.64;98666.38;5080628;28;20355;-67
2021/10/11 11:26:44;;;;;;;0.38;0.38;;;;;;;6.79;68.81;98658.84;5077529;28;20033;-67
2021/10/11 11:29:14;;;;;;;0.50;0.50;;;;;;;6.79;68.76;98662.41;5076361;28;21544;-68
2021/10/11 11:31:40;;;;;;;0.30;0.30;;;;;;;6.81;68.87;98665.75;5079511;28;20044;-68
2021/10/11 11:34:06;;;;;;;0.22;0.22;;;;;;;6.86;69.04;98656.94;5082078;28;20185;-71
2021/10/11 11:36:31;;;;;;;2.20;0.73;;;;;;;6.86;68.91;98656.06;5052621;28;20041;-67
2021/10/11 11:38:57;;;;;;;0.47;0.47;;;;;;;6.88;69.11;98660.28;5060334;28;20037;-67
2021/10/11 11:41:23;;;;;;;0.30;0.30;;;;;;;6.90;69.34;98649.97;5073062;28;20127;-67
2021/10/11 11:43:48;;;;;;;0.20;0.20;;;;;;;6.92;69.23;98661.53;5085758;28;20047;-66
2021/10/11 11:46:14;;;;;;;0.20;0.20;;;;;;;6.93;69.30;98660.44;5060385;28;20127;-68
2021/10/11 11:48:43;;;;;;;0.20;0.20;;;;;;;6.95;69.53;98649.31;5079786;28;20040;-69
2021/10/11 11:51:20;;;;;;;0.30;0.30;;;;;;;6.95;69.61;98650.19;5079397;28;20044;-68
2021/10/11 11:53:46;;;;;;;0.22;0.22;;;;;;;6.92;69.54;98653.34;5084092;28;20406;-68
2021/10/11 11:56:15;;;;;;;0.20;0.20;;;;;;;6.94;69.80;98644.94;5085009;28;20171;-67
2021/10/11 11:58:42;;;;;;;0.22;0.22;;;;;;;6.93;69.87;98645.97;5076230;28;20119;-67
2021/10/11 12:01:13;;;;;;;0.20;0.20;;;;;;;6.94;69.89;98651.22;5090051;28;20040;-67
2021/10/11 12:03:49;;;;;;;0.30;0.30;;;;;;;6.95;69.99;98644.72;5079915;28;20430;-69
2021/10/11 12:06:16;;;;;;;0.65;0.38;;;;;;;6.96;69.93;98651.84;5077073;28;20036;-68
2021/10/11 12:08:43;;;;;;;0.52;0.35;;;;;;;6.97;70.02;98649.97;5079376;28;20074;-71
2021/10/11 12:11:09;;;;;;;0.20;0.20;;;;;;;6.98;70.05;98643.47;5077391;28;20551;-68
2021/10/11 12:13:38;;;;;;;0.30;0.30;;;;;;;6.99;70.22;98640.50;5070580;28;20475;-67
2021/10/11 12:16:06;;;;;;;0.57;0.40;;;;;;;7.02;70.24;98644.69;5074443;28;20059;-67
2021/10/11 12:18:43;;;;;;;0.20;0.20;;;;;;;7.02;70.37;98639.22;5076169;28;20040;-68
2021/10/11 12:21:45;;;;;;;0.40;0.40;;;;;;;7.03;70.30;98635.44;5074774;28;20123;-68
2021/10/11 12:24:13;;;;;;;0.10;0.10;;;;;;;7.00;70.24;98633.97;5034140;28;20218;-67
2021/10/11 12:26:57;;;;;;;0.30;0.30;;;;;;;7.01;70.39;98619.28;5079519;28;20437;-69
2021/10/11 12:29:27;;;;;;;1.50;0.40;;;;;;;7.01;70.38;98624.75;5078443;28;20051;-68
2021/10/11 12:32:02;;;;;;;0.20;0.20;;;;;;;7.05;70.43;98613.38;5077999;28;20115;-67
2021/10/11 12:34:31;;;;;;;0.20;0.20;;;;;;;7.08;70.29;98626.59;5074133;28;20047;-65
2021/10/11 12:36:57;;;;;;;0.20;0.20;;;;;;;7.11;70.26;98620.69;5070941;28;20579;-69
2021/10/11 12:39:37;;;;;;;0.38;0.38;;;;;;;7.13;70.35;98632.25;5085001;28;20040;-66
2021/10/11 12:42:08;;;;;;;0.20;0.20;;;;;;;7.12;70.47;98634.13;5078054;28;20072;-67
2021/10/11 12:44:36;;;;;;;0.47;0.38;;;;;;;7.13;70.46;98618.59;5078831;28;20044;-67
2021/10/11 12:47:04;;;;;;;0.20;0.20;;;;;;;7.14;70.51;98621.13;5082177;28;20067;-67
2021/10/11 12:49:37;;;;;;;0.20;0.20;;;;;;;7.15;70.72;98621.94;5076117;28;20035;-68
2021/10/11 12:52:04;;;;;;;0.22;0.22;;;;;;;7.16;70.57;98634.56;5084978;28;20047;-66
2021/10/11 12:54:35;;;;;;;0.20;0.20;;;;;;;7.17;70.71;98630.78;5055759;28;20040;-67
2021/10/11 12:57:02;;;;;;;0.20;0.20;;;;;;;7.19;70.66;98632.22;5077275;28;20315;-66
2021/10/11 12:59:28;;;;;;;0.30;0.30;;;;;;;7.21;70.80;98610.16;5084093;28;20040;-67
2021/10/11 13:01:56;;;;;;;0.73;0.55;;;;;;;7.24;70.70;98623.38;5073732;28;20098;-68
2021/10/11 13:04:23;;;;;;;0.20;0.20;;;;;;;7.25;70.70;98635.16;5083133;28;20036;-69
2021/10/11 13:06:49;;;;;;;0.20;0.20;;;;;;;7.26;70.80;98632.19;5090006;28;20041;-76
2021/10/11 13:09:16;;;;;;;1.67;0.47;;;;;;;7.28;70.97;98630.06;5087986;28;20131;-66
2021/10/11 13:11:42;;;;;;;0.30;0.30;;;;;;;7.31;70.76;98643.28;5074612;28;20028;-69
2021/10/11 13:14:11;;;;;;;0.40;0.40;;;;;;;7.31;70.86;98640.56;5074722;28;20451;-66
2021/10/11 13:16:40;;;;;;;0.30;0.30;;;;;;;7.33;70.74;98643.06;5076814;28;20063;-67
2021/10/11 13:19:06;;;;;;;0.20;0.20;;;;;;;7.33;70.94;98635.72;5074125;28;20048;-63
2021/10/11 13:21:33;;;;;;;0.35;0.35;;;;;;;7.37;70.88;98647.88;5074951;28;20047;-68
2021/10/11 13:23:59;;;;;;;0.25;0.25;;;;;;;7.39;70.87;98638.63;5078839;28;20456;-68
2021/10/11 13:26:25;;;;;;;0.28;0.28;;;;;;;7.42;71.12;98640.91;5077326;28;20036;-66
2021/10/11 16:04:20;;;;;;;0.65;0.65;;;;;;;8.16;70.89;98668.63;5072767;28;20125;-70
2021/10/11 16:06:46;;;;;;;0.30;0.30;;;;;;;8.18;70.77;98658.28;5073324;28;20032;-67
2021/10/11 16:09:11;;;;;;;0.20;0.20;;;;;;;8.21;70.89;98672.34;5084623;28;20040;-67
2021/10/11 16:11:38;;;;;;;0.30;0.30;;;;;;;8.22;70.89;98667.72;5049970;28;20086;-66
2021/10/11 16:14:04;;;;;;;0.20;0.20;;;;;;;8.25;70.96;98661.81;5069519;28;20055;-67
2021/10/11 16:16:29;;;;;;;0.30;0.30;;;;;;;8.29;70.70;98667.66;5070264;28;20179;-68
2021/10/11 16:18:55;;;;;;;0.20;0.20;;;;;;;8.29;70.69;98667.66;5072690;28;20083;-71
2021/10/11 16:21:21;;;;;;;0.52;0.52;;;;;;;8.30;70.92;98670.16;5073182;28;20043;-67
2021/10/11 16:23:47;;;;;;;1.95;0.40;;;;;;;8.30;70.70;98670.16;5076910;28;20044;-64
2021/10/11 16:26:14;;;;;;;0.20;0.20;;;;;;;8.30;70.84;98663.84;5071835;28;20367;-65
2021/10/11 16:28:41;;;;;;;0.43;0.17;;;;;;;8.30;71.00;98675.63;5073509;28;20036;-65
2021/10/11 16:31:13;;;;;;;0.10;0.10;;;;;;;8.29;70.99;98668.50;5073027;28;20423;-65
2021/10/11 16:33:40;;;;;;;0.20;0.20;;;;;;;8.26;70.89;98666.22;5075576;28;20047;-64
2021/10/11 16:36:09;;;;;;;0.20;0.20;;;;;;;8.29;70.91;98668.50;5074319;28;20086;-64
2021/10/11 16:38:36;;;;;;;0.30;0.30;;;;;;;8.28;70.97;98666.81;5076625;28;20163;-68
2021/10/11 16:41:03;;;;;;;0.30;0.30;;;;;;;8.26;71.05;98666.22;5072044;28;20044;-62
2021/10/11 16:46:51;;;;;;;0.35;0.35;;;;;;;8.23;70.87;98663.94;5068458;28;20067;-65
2021/10/11 16:49:17;;;;;;;0.20;0.20;;;;;;;8.20;70.90;98664.34;5072937;28;20063;-64
2021/10/11 16:51:43;;;;;;;0.35;0.35;;;;;;;8.18;71.02;98666.50;5073877;28;20033;-66
2021/10/11 16:56:36;;;;;;;0.25;0.25;;;;;;;8.14;71.13;98666.09;5073430;28;20029;-66
2021/10/11 16:59:05;;;;;;;0.20;0.20;;;;;;;8.12;70.93;98662.75;5072888;28;20059;-70
2021/10/11 17:01:31;;;;;;;0.20;0.20;;;;;;;8.12;71.16;98670.13;5070480;28;20139;-66
2021/10/11 17:03:57;;;;;;;0.20;0.20;;;;;;;8.09;71.03;98665.09;5070657;28;20270;-64
2021/10/11 17:06:27;;;;;;;0.30;0.30;;;;;;;8.09;71.24;98674.13;5078621;28;20036;-64
2021/10/11 17:08:53;;;;;;;0.50;0.50;;;;;;;8.07;71.13;98674.34;5078836;28;20818;-63
2021/10/11 17:11:19;;;;;;;0.32;0.32;;;;;;;8.09;71.33;98678.78;5079452;28;20115;-64
2021/10/11 17:13:45;;;;;;;0.20;0.20;;;;;;;8.10;71.02;98664.00;5080548;28;20205;-65
2021/10/11 17:16:11;;;;;;;0.30;0.30;;;;;;;8.10;71.20;98666.75;5081047;28;20048;-64
2021/10/11 17:18:37;;;;;;;0.20;0.20;;;;;;;8.10;71.00;98674.94;5078884;28;20040;-65
2021/10/11 17:21:06;;;;;;;0.63;0.63;;;;;;;8.08;71.01;98666.97;5080360;28;20415;-64
2021/10/11 17:23:32;;;;;;;0.30;0.30;;;;;;;8.07;71.01;98666.16;5081025;28;20142;-62
2021/10/11 17:25:59;;;;;;;0.35;0.35;;;;;;;8.09;71.22;98670.56;5078891;28;20041;-64
2021/10/11 17:28:25;;;;;;;0.32;0.32;;;;;;;8.09;71.08;98676.84;5080127;28;20032;-64
2021/10/11 17:30:51;;;;;;;0.20;0.17;;;;;;;8.09;71.14;98673.31;5081893;28;20158;-64
2021/10/11 17:33:18;;;;;;;0.52;0.40;;;;;;;8.10;71.08;98674.94;5087871;28;20212;-63
2021/10/11 17:35:44;;;;;;;0.20;0.20;;;;;;;8.10;70.99;98672.22;5095154;28;20043;-65
2021/10/11 17:38:11;;;;;;;0.73;0.65;;;;;;;8.10;70.88;98677.69;5094886;28;20040;-64
2021/10/11 17:40:37;;;;;;;0.57;0.50;;;;;;;8.13;71.02;98683.56;5094218;28;20048;-63
2021/10/11 17:43:03;;;;;;;0.20;0.20;;;;;;;8.12;70.97;98678.31;5094966;28;20047;-64
2021/10/11 17:45:31;;;;;;;0.90;0.50;;;;;;;8.14;71.19;98681.66;5094969;28;20050;-65
2021/10/11 17:48:00;;;;;;;0.47;0.47;;;;;;;8.13;70.93;98682.75;5094694;28;20035;-65
2021/10/11 17:50:28;;;;;;;0.25;0.25;;;;;;;8.16;71.20;98690.50;5095101;28;20048;-66
2021/10/11 17:52:56;;;;;;;0.20;0.20;;;;;;;8.17;71.03;98686.69;5094896;28;20486;-65
2021/10/11 17:55:23;;;;;;;0.20;0.20;;;;;;;8.16;71.14;98683.13;5094841;28;20055;-63
2021/10/11 17:57:49;;;;;;;0.20;0.20;;;;;;;8.10;71.02;98669.47;5095156;28;20040;-65
2021/10/11 18:00:16;;;;;;;0.30;0.30;;;;;;;8.14;71.10;98674.31;5094498;28;20048;-64
2021/10/11 18:02:41;;;;;;;0.80;0.80;;;;;;;8.13;71.30;98686.31;5094673;28;20090;-64
2021/10/11 18:05:08;;;;;;;0.20;0.20;;;;;;;8.13;71.17;98693.69;5094593;28;20044;-65
2021/10/11 18:07:33;;;;;;;0.30;0.30;;;;;;;8.11;71.15;98691.13;5094729;28;20068;-63
2021/10/11 18:10:02;;;;;;;0.20;0.20;;;;;;;8.10;71.37;98697.69;5094675;28;20067;-64
2021/10/11 18:12:30;;;;;;;0.20;0.20;;;;;;;8.09;71.38;98690.53;5094516;28;20036;-64
2021/10/11 18:14:57;;;;;;;0.20;0.20;;;;;;;8.10;71.39;98692.22;5094602;28;20117;-65
2021/10/11 18:17:24;;;;;;;0.30;0.30;;;;;;;8.13;71.27;98690.94;5094664;28;20494;-63
2021/10/11 18:19:50;;;;;;;0.20;0.20;;;;;;;8.15;71.55;98694.28;5094421;28;20047;-63
2021/10/11 18:22:16;;;;;;;0.20;0.20;;;;;;;8.14;71.55;98692.59;5094096;28;20056;-64
2021/10/11 18:24:41;;;;;;;0.20;0.20;;;;;;;8.14;71.45;98692.59;5094091;28;20048;-64
2021/10/11 18:27:08;;;;;;;0.20;0.20;;;;;;;8.13;71.45;98697.25;5094407;28;20067;-65
2021/10/11 18:29:33;;;;;;;0.57;0.50;;;;;;;8.12;71.58;98692.81;5093639;28;20502;-63
2021/10/11 18:32:01;;;;;;;0.40;0.30;;;;;;;8.14;71.63;98692.59;5094260;28;20044;-64
2021/10/11 18:34:28;;;;;;;0.38;0.38;;;;;;;8.14;71.42;98689.88;5094158;28;20510;-64
2021/10/11 18:36:54;;;;;;;0.20;0.20;;;;;;;8.15;71.45;98699.75;5093942;28;20085;-68
2021/10/11 18:39:19;;;;;;;0.20;0.20;;;;;;;8.18;71.41;98697.41;5094138;28;20436;-62
2021/10/11 18:41:45;;;;;;;0.20;0.20;;;;;;;8.23;71.34;98696.75;5093572;28;20130;-64
2021/10/11 18:44:11;;;;;;;0.40;0.40;;;;;;;8.24;71.31;98693.78;5094186;28;20130;-63
2021/10/11 18:46:37;;;;;;;0.20;0.20;;;;;;;8.24;71.58;98688.31;5093976;28;20047;-63
2021/10/11 18:49:03;;;;;;;0.75;0.55;;;;;;;8.23;71.54;98694.03;5093733;28;20047;-65
2021/10/11 18:51:29;;;;;;;0.45;0.45;;;;;;;8.22;71.58;98693.16;5093740;28;20048;-64
2021/10/11 18:53:59;;;;;;;0.20;0.20;;;;;;;8.24;71.57;98692.94;5093628;28;20182;-63
2021/10/11 18:56:26;;;;;;;0.20;0.20;;;;;;;8.23;71.72;98694.03;5093664;28;20537;-63
2021/10/11 18:58:52;;;;;;;0.20;0.20;;;;;;;8.20;71.69;98698.03;5093851;28;20032;-63
2021/10/11 19:01:18;;;;;;;0.20;0.20;;;;;;;8.19;71.78;98692.78;5093412;28;20043;-62
2021/10/11 19:03:43;;;;;;;0.22;0.22;;;;;;;8.15;71.84;98686.06;5094138;28;20044;-63
2021/10/11 19:06:12;;;;;;;0.22;0.22;;;;;;;8.18;72.06;98702.03;5093792;28;20086;-64
2021/10/11 19:08:38;;;;;;;0.45;0.30;;;;;;;8.20;72.05;98683.50;5093709;28;20131;-62
2021/10/11 19:11:05;;;;;;;0.20;0.20;;;;;;;8.22;71.64;98692.34;5093519;28;20036;-63
2021/10/11 19:13:31;;;;;;;0.20;0.20;;;;;;;8.19;72.02;98690.88;5093754;28;20138;-64
2021/10/11 19:15:57;;;;;;;0.50;0.30;;;;;;;8.20;72.06;98694.44;5093753;28;20040;-63
2021/10/11 19:18:23;;;;;;;0.20;0.20;;;;;;;8.18;72.07;98700.13;5093517;28;20044;-62
2021/10/11 19:20:49;;;;;;;0.20;0.20;;;;;;;8.17;71.80;98692.16;5093332;28;20044;-63
2021/10/11 19:23:16;;;;;;;0.10;0.10;;;;;;;8.17;72.17;98692.16;5093381;28;20048;-64
2021/10/11 19:25:42;;;;;;;0.25;0.25;;;;;;;8.16;71.91;98695.97;5093201;28;20056;-63
2021/10/11 19:28:09;;;;;;;0.20;0.20;;;;;;;8.15;71.87;98691.53;5075064;28;20125;-64
2021/10/11 19:30:35;;;;;;;0.20;0.20;;;;;;;8.14;71.90;98684.41;5092657;28;20483;-62
2021/10/11 19:33:01;;;;;;;0.20;0.20;;;;;;;8.13;71.97;98694.50;5092935;28;20046;-63
2021/10/11 19:35:27;;;;;;;0.28;0.28;;;;;;;8.16;71.87;98693.22;5092962;28;20517;-66
2021/10/11 19:37:53;;;;;;;0.30;0.30;;;;;;;8.16;71.94;98688.59;5092996;28;20044;-64
2021/10/11 19:40:21;;;;;;;0.30;0.22;;;;;;;8.19;72.09;98693.63;5092897;28;20128;-64
2021/10/11 19:42:48;;;;;;;0.20;0.20;;;;;;;8.21;72.02;98688.75;5092978;28;20044;-64
2021/10/11 19:45:14;;;;;;;0.50;0.50;;;;;;;8.20;71.94;98692.56;5092802;28;20044;-64
2021/10/11 19:47:40;;;;;;;0.20;0.20;;;;;;;8.21;72.01;98694.22;5092788;28;20036;-63
2021/10/11 19:50:11;;;;;;;0.20;0.20;;;;;;;8.22;72.13;98698.63;5092921;28;20044;-63
2021/10/11 19:52:38;;;;;;;0.25;0.25;;;;;;;8.24;72.00;98698.41;5091826;28;20109;-63
2021/10/11 19:55:06;;;;;;;0.20;0.20;;;;;;;8.24;71.87;98698.41;5092553;28;20044;-63
2021/10/11 19:57:36;;;;;;;0.20;0.20;;;;;;;8.24;72.18;98698.41;5092804;28;20046;-63